Aérodrome :
LOGIN :

S'inscrire | Disclaimer

   EN    FR    IT 

 










Légende :    VFR   VFR Marginal   IFR   IFR Intensif   IFR Très Intensif
Visi : 
Plafond : 
>= 8 km
>= 3000ft
5 à 8 km
1000 à 3000 ft
1500m à 5 km
500 à 1000 ft
800 à 1500m
200 à 500 ft
< 800m
< 200 ft
Symboles :   Orages  Brouillard  Fortes neiges  Fortes précipitations  Vent > 20 kt
SIGMETs :   Divers  Orages  Givrage  Turbulence  Onde Orograph.  Cendres Volcan.






- Altitude de l'aérodrome : 135 ft
- Code IATA : BOJ


LBBG - Burgas

DERNIER METAR :
  • 151700Z 11013KT 9999 FEW030 25/18 Q1013 NOSIG

METARs EXPIRÉS :
  • 151630Z 11013KT 9999 FEW031 25/18 Q1013 NOSIG
  • 151600Z 12013KT 9999 SCT029 25/18 Q1013 NOSIG
  • 151530Z 12014KT 9999 FEW026 SCT032 26/18 Q1013 NOSIG
  • 151500Z 11014KT 9999 FEW028 26/18 Q1013 NOSIG
  • 151430Z 11014KT 9999 FEW025 27/17 Q1013 NOSIG

TAF TAF LBBG
Valide du 15 à 12h jusqu'au 16 à 12h UTC


151100Z 1512/1612 12014KT 9999 SCT035
BECMG 1522/1524 03008KT
BECMG 1606/1608 09012KT



MET'MAP, la Météo Aéronautique d'un coup d'oeil ! - Copyright ORBIFLY Décembre 2007 - Disclaimer

ORBIFLY MET'MAP TEAM :

Programmation & Développement : Alexandra Zaïnal
Sur une idée originale de : Baudouin d'Aumeries
Assistance à la programmation : Marc-Olivier Méhu
Soutien technique & logistique : Manuel Goepfert

Contact : metmap@orbifly.com




SOURCES & CREDITS :

   NOAA